WMT9721 LEBL-LIMC
Flight info
| Callsign | WMT9721 |
|---|---|
| Flight time | 1h 16m |
| Altitude | 30000 |
| Route | AGENA DCT BODEQ DCT LUMAS DCT UNANA DCT STP DCT RAPED DCT PIGOS DCT EKSID DCT NOSTA DCT EGHIN DCT ANAKI P860 DEVOX |
| Aircraft | A321/M-SDE1E2E3FGIJ1J4RWXY/LB1 |
Departure
| Time | 2026-05-06 07:43 |
|---|---|
| Airport | Josep Tarradellas Barcelona-El Prat Airport (LEBL) |
Arrival
| Time | 2026-05-06 08:59 |
|---|---|
| Airport | Milan Malpensa International Airport (LIMC) |
| Time | Latitude | Longitude | Altitude | Speed | Heading |
|---|---|---|---|---|---|
| 2026-05-06 07:09 | 41.30222 | 2.07980 | 22 ft | 0 kts | 15° |
| 2026-05-06 07:29 | 41.30201 | 2.07972 | 19 ft | 4 kts | 15° |
| 2026-05-06 07:29 | 41.30175 | 2.07962 | 19 ft | 4 kts | 15° |
| 2026-05-06 07:29 | 41.30153 | 2.07955 | 21 ft | 4 kts | 22° |
| 2026-05-06 07:29 | 41.30133 | 2.07935 | 21 ft | 4 kts | 63° |
| 2026-05-06 07:30 | 41.30126 | 2.07907 | 20 ft | 1 kts | 85° |
| 2026-05-06 07:35 | 41.30127 | 2.07927 | 21 ft | 4 kts | 85° |
| 2026-05-06 07:35 | 41.30137 | 2.07972 | 19 ft | 6 kts | 63° |
| 2026-05-06 07:35 | 41.30124 | 2.07984 | 18 ft | 5 kts | 195° |
| 2026-05-06 07:35 | 41.30063 | 2.07978 | 17 ft | 12 kts | 165° |
| 2026-05-06 07:36 | 41.29981 | 2.08027 | 18 ft | 14 kts | 155° |
| 2026-05-06 07:36 | 41.29889 | 2.08074 | 19 ft | 15 kts | 160° |
| 2026-05-06 07:36 | 41.29788 | 2.08122 | 21 ft | 16 kts | 160° |
| 2026-05-06 07:36 | 41.29688 | 2.08184 | 18 ft | 17 kts | 155° |
| 2026-05-06 07:37 | 41.29591 | 2.08242 | 15 ft | 12 kts | 155° |
| 2026-05-06 07:37 | 41.29537 | 2.08296 | 17 ft | 2 kts | 76° |
| 2026-05-06 07:37 | 41.29567 | 2.08333 | 16 ft | 8 kts | 45° |
| 2026-05-06 07:37 | 41.29607 | 2.08412 | 17 ft | 12 kts | 64° |
| 2026-05-06 07:38 | 41.29609 | 2.08510 | 17 ft | 11 kts | 132° |
| 2026-05-06 07:38 | 41.29536 | 2.08568 | 16 ft | 14 kts | 154° |
| 2026-05-06 07:38 | 41.29437 | 2.08631 | 15 ft | 17 kts | 156° |
| 2026-05-06 07:38 | 41.29329 | 2.08693 | 17 ft | 17 kts | 155° |
| 2026-05-06 07:39 | 41.29217 | 2.08761 | 18 ft | 19 kts | 155° |
| 2026-05-06 07:39 | 41.29090 | 2.08837 | 16 ft | 20 kts | 156° |
| 2026-05-06 07:39 | 41.28968 | 2.08911 | 16 ft | 16 kts | 153° |
| 2026-05-06 07:39 | 41.28962 | 2.09022 | 17 ft | 13 kts | 65° |
| 2026-05-06 07:40 | 41.29007 | 2.09153 | 17 ft | 19 kts | 65° |
| 2026-05-06 07:40 | 41.29067 | 2.09327 | 19 ft | 22 kts | 65° |
| 2026-05-06 07:40 | 41.29132 | 2.09515 | 17 ft | 23 kts | 65° |
| 2026-05-06 07:40 | 41.29198 | 2.09709 | 17 ft | 20 kts | 65° |
| 2026-05-06 07:41 | 41.29258 | 2.09882 | 17 ft | 22 kts | 65° |
| 2026-05-06 07:41 | 41.29332 | 2.10064 | 17 ft | 23 kts | 65° |
| 2026-05-06 07:41 | 41.29356 | 2.10243 | 16 ft | 19 kts | 128° |
| 2026-05-06 07:41 | 41.29236 | 2.10325 | 16 ft | 14 kts | 164° |
| 2026-05-06 07:42 | 41.29197 | 2.10255 | 17 ft | 9 kts | 245° |
| 2026-05-06 07:42 | 41.29193 | 2.10244 | 17 ft | 10 kts | 245° |
| 2026-05-06 07:42 | 41.29035 | 2.09782 | 20 ft | 97 kts | 245° |
| 2026-05-06 07:42 | 41.28664 | 2.08673 | 56 ft | 158 kts | 251° |
| 2026-05-06 07:43 | 41.28166 | 2.07383 | 817 ft | 158 kts | 234° |
| 2026-05-06 07:43 | 41.27251 | 2.06537 | 1427 ft | 174 kts | 193° |
| 2026-05-06 07:43 | 41.25965 | 2.06361 | 1783 ft | 197 kts | 184° |
| 2026-05-06 07:43 | 41.24544 | 2.06255 | 2188 ft | 217 kts | 184° |
| 2026-05-06 07:44 | 41.23011 | 2.06141 | 3007 ft | 222 kts | 185° |
| 2026-05-06 07:44 | 41.21458 | 2.06015 | 3900 ft | 226 kts | 187° |
| 2026-05-06 07:44 | 41.19884 | 2.05878 | 4837 ft | 228 kts | 187° |
| 2026-05-06 07:44 | 41.18301 | 2.05738 | 5767 ft | 228 kts | 187° |
| 2026-05-06 07:45 | 41.16704 | 2.05606 | 6594 ft | 236 kts | 187° |
| 2026-05-06 07:45 | 41.15030 | 2.05512 | 7319 ft | 244 kts | 186° |
| 2026-05-06 07:45 | 41.13316 | 2.05443 | 8165 ft | 248 kts | 186° |
| 2026-05-06 07:45 | 41.11576 | 2.05376 | 9031 ft | 252 kts | 186° |
| 2026-05-06 07:46 | 41.09836 | 2.05305 | 9880 ft | 255 kts | 186° |
| 2026-05-06 07:46 | 41.08048 | 2.05228 | 10676 ft | 259 kts | 186° |
| 2026-05-06 07:46 | 41.06235 | 2.05146 | 11470 ft | 262 kts | 186° |
| 2026-05-06 07:46 | 41.04404 | 2.05061 | 12280 ft | 265 kts | 187° |
| 2026-05-06 07:47 | 41.02554 | 2.04976 | 13088 ft | 268 kts | 185° |
| 2026-05-06 07:47 | 41.00679 | 2.05319 | 13856 ft | 279 kts | 166° |
| 2026-05-06 07:47 | 40.98920 | 2.06512 | 14429 ft | 297 kts | 147° |
| 2026-05-06 07:47 | 40.97448 | 2.08614 | 14633 ft | 327 kts | 128° |
| 2026-05-06 07:48 | 40.96117 | 2.11136 | 14818 ft | 351 kts | 128° |
| 2026-05-06 07:48 | 40.94679 | 2.13859 | 15063 ft | 369 kts | 128° |
| 2026-05-06 07:48 | 40.93192 | 2.16668 | 15627 ft | 376 kts | 129° |
| 2026-05-06 07:48 | 40.91675 | 2.19522 | 16297 ft | 382 kts | 129° |
| 2026-05-06 07:49 | 40.90149 | 2.22421 | 16957 ft | 388 kts | 127° |
| 2026-05-06 07:49 | 40.88989 | 2.25700 | 17589 ft | 401 kts | 110° |
| 2026-05-06 07:49 | 40.88535 | 2.29383 | 18203 ft | 413 kts | 93° |
| 2026-05-06 07:49 | 40.88902 | 2.33174 | 18764 ft | 421 kts | 74° |
| 2026-05-06 07:50 | 40.90090 | 2.36721 | 19309 ft | 425 kts | 56° |
| 2026-05-06 07:50 | 40.91839 | 2.39824 | 19880 ft | 428 kts | 50° |
| 2026-05-06 07:50 | 40.93676 | 2.42947 | 20478 ft | 432 kts | 50° |
| 2026-05-06 07:50 | 40.95526 | 2.46102 | 21077 ft | 436 kts | 50° |
| 2026-05-06 07:51 | 40.97391 | 2.49292 | 21669 ft | 440 kts | 51° |
| 2026-05-06 07:51 | 40.99267 | 2.52513 | 22259 ft | 444 kts | 51° |
| 2026-05-06 07:51 | 41.01160 | 2.55771 | 22848 ft | 448 kts | 51° |
| 2026-05-06 07:51 | 41.03068 | 2.59054 | 23421 ft | 452 kts | 51° |
| 2026-05-06 07:52 | 41.04994 | 2.62368 | 23904 ft | 456 kts | 51° |
| 2026-05-06 07:52 | 41.06909 | 2.65669 | 24368 ft | 460 kts | 51° |
| 2026-05-06 07:52 | 41.08863 | 2.69042 | 24800 ft | 463 kts | 51° |
| 2026-05-06 07:52 | 41.10829 | 2.72443 | 25271 ft | 467 kts | 51° |
| 2026-05-06 07:53 | 41.12811 | 2.75875 | 25698 ft | 471 kts | 51° |
| 2026-05-06 07:53 | 41.14808 | 2.79334 | 26128 ft | 474 kts | 51° |
| 2026-05-06 07:53 | 41.16820 | 2.82817 | 26564 ft | 477 kts | 51° |
| 2026-05-06 07:53 | 41.18849 | 2.86328 | 26983 ft | 481 kts | 51° |
| 2026-05-06 07:54 | 41.20890 | 2.89867 | 27411 ft | 484 kts | 51° |
| 2026-05-06 07:54 | 41.22938 | 2.93430 | 27833 ft | 487 kts | 52° |
| 2026-05-06 07:54 | 41.25002 | 2.97026 | 28250 ft | 491 kts | 52° |
| 2026-05-06 07:54 | 41.27076 | 3.00643 | 28664 ft | 494 kts | 52° |
| 2026-05-06 07:55 | 41.29135 | 3.04239 | 29063 ft | 497 kts | 52° |
| 2026-05-06 07:55 | 41.31235 | 3.07911 | 29463 ft | 501 kts | 52° |
| 2026-05-06 07:55 | 41.33348 | 3.11617 | 29828 ft | 505 kts | 52° |
| 2026-05-06 07:55 | 41.35474 | 3.15346 | 29954 ft | 502 kts | 52° |
| 2026-05-06 07:56 | 41.37547 | 3.18985 | 29971 ft | 486 kts | 52° |
| 2026-05-06 07:56 | 41.39572 | 3.22541 | 29967 ft | 480 kts | 52° |
| 2026-05-06 07:56 | 41.43558 | 3.29550 | 29973 ft | 477 kts | 52° |
| 2026-05-06 07:57 | 41.47561 | 3.36605 | 29975 ft | 477 kts | 52° |
| 2026-05-06 07:57 | 41.51555 | 3.43672 | 30015 ft | 477 kts | 53° |
| 2026-05-06 07:58 | 41.54698 | 3.51408 | 29966 ft | 474 kts | 72° |
| 2026-05-06 07:58 | 41.56294 | 3.59905 | 29965 ft | 471 kts | 81° |
| 2026-05-06 07:59 | 41.57681 | 3.68403 | 29968 ft | 472 kts | 81° |
| 2026-05-06 07:59 | 41.59086 | 3.76967 | 29971 ft | 472 kts | 81° |
| 2026-05-06 08:00 | 41.60480 | 3.85540 | 29952 ft | 472 kts | 81° |
| 2026-05-06 08:00 | 41.61861 | 3.94119 | 29962 ft | 472 kts | 81° |
| 2026-05-06 08:01 | 41.63236 | 4.02639 | 29968 ft | 472 kts | 81° |
| 2026-05-06 08:01 | 41.64618 | 4.11221 | 29973 ft | 472 kts | 81° |
| 2026-05-06 08:02 | 41.65988 | 4.19807 | 29939 ft | 472 kts | 82° |
| 2026-05-06 08:02 | 41.67344 | 4.28390 | 29944 ft | 472 kts | 82° |
| 2026-05-06 08:03 | 41.68466 | 4.35525 | 29958 ft | 472 kts | 82° |
| 2026-05-06 08:03 | 41.70035 | 4.45509 | 29995 ft | 472 kts | 82° |
| 2026-05-06 08:04 | 41.71377 | 4.54097 | 29982 ft | 471 kts | 82° |
| 2026-05-06 08:04 | 41.72607 | 4.61207 | 29943 ft | 474 kts | 75° |
| 2026-05-06 08:05 | 41.75591 | 4.69114 | 29945 ft | 480 kts | 54° |
| 2026-05-06 08:05 | 41.78523 | 4.73532 | 29947 ft | 480 kts | 43° |
| 2026-05-06 08:05 | 41.80907 | 4.76658 | 29946 ft | 480 kts | 43° |
| 2026-05-06 08:06 | 41.84868 | 4.81877 | 29947 ft | 480 kts | 44° |
| 2026-05-06 08:06 | 41.89626 | 4.88171 | 29982 ft | 481 kts | 44° |
| 2026-05-06 08:07 | 41.94378 | 4.94487 | 29972 ft | 480 kts | 44° |
| 2026-05-06 08:07 | 41.99896 | 5.01842 | 29932 ft | 481 kts | 44° |
| 2026-05-06 08:08 | 42.03877 | 5.07149 | 29934 ft | 482 kts | 44° |
| 2026-05-06 08:08 | 42.08610 | 5.13461 | 29976 ft | 482 kts | 44° |
| 2026-05-06 08:09 | 42.13373 | 5.19831 | 29970 ft | 483 kts | 44° |
| 2026-05-06 08:09 | 42.18133 | 5.26214 | 29963 ft | 483 kts | 44° |
| 2026-05-06 08:10 | 42.22885 | 5.32608 | 29961 ft | 483 kts | 44° |
| 2026-05-06 08:10 | 42.27607 | 5.38972 | 29920 ft | 483 kts | 45° |
| 2026-05-06 08:11 | 42.32359 | 5.45397 | 29945 ft | 484 kts | 45° |
| 2026-05-06 08:11 | 42.37106 | 5.51845 | 29940 ft | 484 kts | 45° |
| 2026-05-06 08:12 | 42.41860 | 5.58298 | 29931 ft | 484 kts | 45° |
| 2026-05-06 08:12 | 42.46617 | 5.64762 | 29932 ft | 485 kts | 45° |
| 2026-05-06 08:13 | 42.51345 | 5.71198 | 29921 ft | 485 kts | 45° |
| 2026-05-06 08:13 | 42.56102 | 5.77689 | 29916 ft | 485 kts | 45° |
| 2026-05-06 08:14 | 42.60859 | 5.84200 | 29923 ft | 486 kts | 45° |
| 2026-05-06 08:14 | 42.65615 | 5.90735 | 29923 ft | 487 kts | 45° |
| 2026-05-06 08:15 | 42.70337 | 5.97241 | 29919 ft | 487 kts | 45° |
| 2026-05-06 08:15 | 42.75086 | 6.03798 | 29916 ft | 486 kts | 45° |
| 2026-05-06 08:16 | 42.79837 | 6.10355 | 29878 ft | 487 kts | 46° |
| 2026-05-06 08:16 | 42.84579 | 6.16912 | 29902 ft | 486 kts | 45° |
| 2026-05-06 08:17 | 42.89646 | 6.22932 | 29928 ft | 487 kts | 39° |
| 2026-05-06 08:17 | 42.94840 | 6.28871 | 29918 ft | 487 kts | 39° |
| 2026-05-06 08:18 | 43.00032 | 6.34828 | 29913 ft | 487 kts | 39° |
| 2026-05-06 08:18 | 43.05216 | 6.40805 | 29939 ft | 488 kts | 39° |
| 2026-05-06 08:19 | 43.10404 | 6.46798 | 29895 ft | 488 kts | 39° |
| 2026-05-06 08:19 | 43.15554 | 6.52751 | 29901 ft | 488 kts | 40° |
| 2026-05-06 08:20 | 43.20719 | 6.58792 | 29900 ft | 488 kts | 44° |
| 2026-05-06 08:20 | 43.25017 | 6.65949 | 29919 ft | 486 kts | 56° |
| 2026-05-06 08:21 | 43.28976 | 6.73469 | 29917 ft | 486 kts | 56° |
| 2026-05-06 08:21 | 43.32947 | 6.80988 | 29911 ft | 486 kts | 56° |
| 2026-05-06 08:22 | 43.36886 | 6.88454 | 29866 ft | 486 kts | 56° |
| 2026-05-06 08:22 | 43.40834 | 6.95988 | 29888 ft | 485 kts | 56° |
| 2026-05-06 08:23 | 43.44774 | 7.03527 | 29925 ft | 485 kts | 56° |
| 2026-05-06 08:23 | 43.48719 | 7.11067 | 29906 ft | 485 kts | 56° |
| 2026-05-06 08:24 | 43.52633 | 7.18566 | 29900 ft | 485 kts | 57° |
| 2026-05-06 08:24 | 43.56551 | 7.26135 | 29893 ft | 485 kts | 57° |
| 2026-05-06 08:25 | 43.60467 | 7.33711 | 29915 ft | 485 kts | 57° |
| 2026-05-06 08:25 | 43.64377 | 7.41283 | 29915 ft | 484 kts | 57° |
| 2026-05-06 08:26 | 43.68279 | 7.48845 | 29906 ft | 483 kts | 57° |
| 2026-05-06 08:26 | 43.72141 | 7.56355 | 29892 ft | 483 kts | 57° |
| 2026-05-06 08:27 | 43.76023 | 7.63930 | 29845 ft | 482 kts | 57° |
| 2026-05-06 08:27 | 43.79902 | 7.71515 | 29865 ft | 483 kts | 57° |
| 2026-05-06 08:28 | 43.83777 | 7.79115 | 29868 ft | 483 kts | 57° |
| 2026-05-06 08:28 | 43.87633 | 7.86653 | 29865 ft | 483 kts | 57° |
| 2026-05-06 08:29 | 43.91517 | 7.94251 | 29855 ft | 483 kts | 57° |
| 2026-05-06 08:29 | 43.95390 | 8.01864 | 29838 ft | 483 kts | 57° |
| 2026-05-06 08:30 | 43.99253 | 8.09496 | 29858 ft | 483 kts | 57° |
| 2026-05-06 08:30 | 44.03106 | 8.17134 | 29865 ft | 483 kts | 57° |
| 2026-05-06 08:31 | 44.06481 | 8.25054 | 29864 ft | 476 kts | 72° |
| 2026-05-06 08:31 | 44.08945 | 8.33595 | 29868 ft | 476 kts | 73° |
| 2026-05-06 08:32 | 44.11435 | 8.42264 | 29076 ft | 490 kts | 72° |
| 2026-05-06 08:32 | 44.12704 | 8.46665 | 28358 ft | 489 kts | 72° |
| 2026-05-06 08:32 | 44.13967 | 8.51045 | 27781 ft | 485 kts | 72° |
| 2026-05-06 08:33 | 44.15200 | 8.55324 | 27297 ft | 479 kts | 72° |
| 2026-05-06 08:33 | 44.16438 | 8.59623 | 26725 ft | 476 kts | 72° |
| 2026-05-06 08:33 | 44.17801 | 8.63813 | 26078 ft | 478 kts | 61° |
| 2026-05-06 08:33 | 44.19813 | 8.67464 | 25659 ft | 474 kts | 46° |
| 2026-05-06 08:34 | 44.22381 | 8.70303 | 25154 ft | 468 kts | 28° |
| 2026-05-06 08:34 | 44.28391 | 8.72912 | 24253 ft | 444 kts | 358° |
| 2026-05-06 08:34 | 44.31464 | 8.73069 | 23752 ft | 441 kts | 356° |
| 2026-05-06 08:35 | 44.34474 | 8.73193 | 23324 ft | 437 kts | 356° |
| 2026-05-06 08:35 | 44.37505 | 8.73313 | 22795 ft | 435 kts | 356° |
| 2026-05-06 08:35 | 44.40504 | 8.73437 | 22356 ft | 430 kts | 356° |
| 2026-05-06 08:35 | 44.43488 | 8.73563 | 21924 ft | 425 kts | 357° |
| 2026-05-06 08:36 | 44.46435 | 8.73690 | 21353 ft | 424 kts | 357° |
| 2026-05-06 08:36 | 44.49358 | 8.73816 | 20976 ft | 418 kts | 357° |
| 2026-05-06 08:36 | 44.52266 | 8.73939 | 20483 ft | 415 kts | 357° |
| 2026-05-06 08:36 | 44.55141 | 8.74060 | 19935 ft | 414 kts | 358° |
| 2026-05-06 08:37 | 44.57997 | 8.74183 | 19594 ft | 406 kts | 358° |
| 2026-05-06 08:37 | 44.60772 | 8.74305 | 19111 ft | 404 kts | 358° |
| 2026-05-06 08:37 | 44.63565 | 8.74429 | 18535 ft | 399 kts | 359° |
| 2026-05-06 08:37 | 44.66323 | 8.74551 | 18002 ft | 396 kts | 359° |
| 2026-05-06 08:38 | 44.69051 | 8.74456 | 17606 ft | 385 kts | 349° |
| 2026-05-06 08:38 | 44.71597 | 8.73654 | 17466 ft | 366 kts | 336° |
| 2026-05-06 08:38 | 44.73946 | 8.72461 | 17279 ft | 355 kts | 335° |
| 2026-05-06 08:38 | 44.76247 | 8.71280 | 16908 ft | 350 kts | 335° |
| 2026-05-06 08:39 | 44.78524 | 8.70106 | 16508 ft | 347 kts | 335° |
| 2026-05-06 08:39 | 44.80780 | 8.68939 | 16068 ft | 343 kts | 335° |
| 2026-05-06 08:39 | 44.82979 | 8.67797 | 15471 ft | 340 kts | 335° |
| 2026-05-06 08:39 | 44.85190 | 8.66648 | 14887 ft | 337 kts | 335° |
| 2026-05-06 08:40 | 44.87374 | 8.65514 | 14347 ft | 332 kts | 335° |
| 2026-05-06 08:40 | 44.89526 | 8.64398 | 13886 ft | 327 kts | 335° |
| 2026-05-06 08:40 | 44.91655 | 8.63293 | 13460 ft | 326 kts | 335° |
| 2026-05-06 08:40 | 44.93778 | 8.62187 | 13034 ft | 324 kts | 335° |
| 2026-05-06 08:41 | 44.95885 | 8.61088 | 12639 ft | 322 kts | 335° |
| 2026-05-06 08:41 | 44.97975 | 8.59998 | 12239 ft | 319 kts | 335° |
| 2026-05-06 08:41 | 45.00032 | 8.58962 | 11840 ft | 318 kts | 340° |
| 2026-05-06 08:41 | 45.02198 | 8.58303 | 11478 ft | 317 kts | 345° |
| 2026-05-06 08:42 | 45.04354 | 8.57713 | 11119 ft | 314 kts | 345° |
| 2026-05-06 08:42 | 45.06490 | 8.57126 | 10767 ft | 311 kts | 345° |
| 2026-05-06 08:42 | 45.08608 | 8.56541 | 10418 ft | 309 kts | 346° |
| 2026-05-06 08:42 | 45.10707 | 8.55962 | 10070 ft | 306 kts | 346° |
| 2026-05-06 08:43 | 45.12794 | 8.55385 | 9713 ft | 304 kts | 346° |
| 2026-05-06 08:43 | 45.14863 | 8.54812 | 9432 ft | 302 kts | 346° |
| 2026-05-06 08:43 | 45.16894 | 8.54247 | 9147 ft | 299 kts | 346° |
| 2026-05-06 08:43 | 45.18905 | 8.53686 | 9024 ft | 290 kts | 346° |
| 2026-05-06 08:44 | 45.20860 | 8.53140 | 8896 ft | 283 kts | 346° |
| 2026-05-06 08:44 | 45.22778 | 8.52604 | 8699 ft | 279 kts | 346° |
| 2026-05-06 08:44 | 45.24672 | 8.52078 | 8472 ft | 276 kts | 346° |
| 2026-05-06 08:44 | 45.26552 | 8.51556 | 8215 ft | 275 kts | 347° |
| 2026-05-06 08:45 | 45.28423 | 8.51036 | 7958 ft | 273 kts | 347° |
| 2026-05-06 08:45 | 45.30292 | 8.50825 | 7695 ft | 269 kts | 8° |
| 2026-05-06 08:45 | 45.32006 | 8.51778 | 7449 ft | 266 kts | 37° |
| 2026-05-06 08:45 | 45.33195 | 8.53723 | 7173 ft | 261 kts | 67° |
| 2026-05-06 08:46 | 45.33690 | 8.56141 | 6921 ft | 259 kts | 83° |
| 2026-05-06 08:46 | 45.34028 | 8.58650 | 6745 ft | 259 kts | 83° |
| 2026-05-06 08:46 | 45.34368 | 8.61156 | 6526 ft | 258 kts | 83° |
| 2026-05-06 08:46 | 45.34416 | 8.63638 | 6287 ft | 245 kts | 108° |
| 2026-05-06 08:47 | 45.33634 | 8.65673 | 6072 ft | 230 kts | 140° |
| 2026-05-06 08:47 | 45.32303 | 8.66789 | 6013 ft | 223 kts | 166° |
| 2026-05-06 08:47 | 45.30774 | 8.67240 | 5964 ft | 225 kts | 170° |
| 2026-05-06 08:47 | 45.29240 | 8.67661 | 5844 ft | 224 kts | 170° |
| 2026-05-06 08:48 | 45.27711 | 8.68082 | 5715 ft | 223 kts | 170° |
| 2026-05-06 08:48 | 45.26184 | 8.68502 | 5577 ft | 224 kts | 170° |
| 2026-05-06 08:48 | 45.24676 | 8.68914 | 5452 ft | 224 kts | 169° |
| 2026-05-06 08:48 | 45.23144 | 8.69334 | 5319 ft | 225 kts | 169° |
| 2026-05-06 08:49 | 45.21608 | 8.69759 | 5179 ft | 224 kts | 170° |
| 2026-05-06 08:49 | 45.20087 | 8.70179 | 5044 ft | 222 kts | 171° |
| 2026-05-06 08:49 | 45.18584 | 8.70593 | 4814 ft | 217 kts | 169° |
| 2026-05-06 08:49 | 45.17215 | 8.71432 | 4658 ft | 215 kts | 144° |
| 2026-05-06 08:50 | 45.16296 | 8.73069 | 4617 ft | 216 kts | 116° |
| 2026-05-06 08:50 | 45.16051 | 8.75183 | 4565 ft | 224 kts | 86° |
| 2026-05-06 08:50 | 45.16609 | 8.77243 | 4517 ft | 229 kts | 56° |
| 2026-05-06 08:50 | 45.17588 | 8.79028 | 4471 ft | 230 kts | 54° |
| 2026-05-06 08:51 | 45.18564 | 8.80788 | 4401 ft | 231 kts | 54° |
| 2026-05-06 08:51 | 45.19580 | 8.82541 | 4359 ft | 230 kts | 44° |
| 2026-05-06 08:51 | 45.20945 | 8.83709 | 4309 ft | 236 kts | 17° |
| 2026-05-06 08:51 | 45.22690 | 8.83895 | 4265 ft | 264 kts | 349° |
| 2026-05-06 08:52 | 45.24514 | 8.83407 | 4298 ft | 269 kts | 348° |
| 2026-05-06 08:52 | 45.26361 | 8.82893 | 4235 ft | 270 kts | 348° |
| 2026-05-06 08:52 | 45.28207 | 8.82382 | 4179 ft | 271 kts | 348° |
| 2026-05-06 08:52 | 45.30059 | 8.81873 | 4122 ft | 271 kts | 348° |
| 2026-05-06 08:53 | 45.31908 | 8.81369 | 4058 ft | 271 kts | 348° |
| 2026-05-06 08:53 | 45.33737 | 8.80871 | 3994 ft | 270 kts | 348° |
| 2026-05-06 08:53 | 45.35579 | 8.80370 | 3956 ft | 269 kts | 348° |
| 2026-05-06 08:53 | 45.37423 | 8.79876 | 4037 ft | 273 kts | 349° |
| 2026-05-06 08:54 | 45.39281 | 8.79461 | 3904 ft | 265 kts | 351° |
| 2026-05-06 08:54 | 45.41068 | 8.79116 | 3773 ft | 254 kts | 352° |
| 2026-05-06 08:54 | 45.42785 | 8.78851 | 3648 ft | 243 kts | 352° |
| 2026-05-06 08:54 | 45.44414 | 8.78474 | 3420 ft | 232 kts | 350° |
| 2026-05-06 08:55 | 45.45958 | 8.78051 | 3311 ft | 221 kts | 350° |
| 2026-05-06 08:55 | 45.47435 | 8.77642 | 3188 ft | 217 kts | 351° |
| 2026-05-06 08:55 | 45.48857 | 8.77250 | 3109 ft | 198 kts | 351° |
| 2026-05-06 08:55 | 45.50149 | 8.76894 | 2972 ft | 183 kts | 351° |
| 2026-05-06 08:56 | 45.51369 | 8.76559 | 2773 ft | 174 kts | 352° |
| 2026-05-06 08:56 | 45.52535 | 8.76239 | 2555 ft | 168 kts | 353° |
| 2026-05-06 08:56 | 45.53651 | 8.75931 | 2354 ft | 159 kts | 354° |
| 2026-05-06 08:56 | 45.54715 | 8.75639 | 2131 ft | 153 kts | 354° |
| 2026-05-06 08:57 | 45.55753 | 8.75353 | 1915 ft | 150 kts | 354° |
| 2026-05-06 08:57 | 45.56772 | 8.75073 | 1719 ft | 148 kts | 354° |
| 2026-05-06 08:57 | 45.57768 | 8.74799 | 1502 ft | 148 kts | 353° |
| 2026-05-06 08:57 | 45.58773 | 8.74522 | 1324 ft | 145 kts | 354° |
| 2026-05-06 08:58 | 45.59758 | 8.74254 | 1120 ft | 144 kts | 353° |
| 2026-05-06 08:58 | 45.60737 | 8.73993 | 961 ft | 141 kts | 352° |
| 2026-05-06 08:58 | 45.61693 | 8.73720 | 766 ft | 141 kts | 353° |
| 2026-05-06 08:58 | 45.62531 | 8.73487 | 744 ft | 100 kts | 348° |
| 2026-05-06 08:59 | 45.63016 | 8.73343 | 743 ft | 42 kts | 340° |
| 2026-05-06 08:59 | 45.63176 | 8.73208 | 744 ft | 16 kts | 322° |
| 2026-05-06 08:59 | 45.63226 | 8.73130 | 749 ft | 8 kts | 305° |
| 2026-05-06 08:59 | 45.63252 | 8.73083 | 750 ft | 5 kts | 309° |
| 2026-05-06 09:00 | 45.63266 | 8.73056 | 752 ft | 2 kts | 307° |
| 2026-05-06 09:00 | 45.63278 | 8.73032 | 749 ft | 5 kts | 304° |
| 2026-05-06 09:00 | 45.63305 | 8.72974 | 750 ft | 9 kts | 303° |
| 2026-05-06 09:00 | 45.63338 | 8.72905 | 750 ft | 8 kts | 303° |
| 2026-05-06 09:01 | 45.63366 | 8.72846 | 749 ft | 7 kts | 305° |
| 2026-05-06 09:01 | 45.63386 | 8.72804 | 751 ft | 0 kts | 302° |
| 2026-05-06 09:02 | 45.63398 | 8.72763 | 748 ft | 8 kts | 288° |
| 2026-05-06 09:02 | 45.63408 | 8.72683 | 752 ft | 9 kts | 273° |
| 2026-05-06 09:02 | 45.63397 | 8.72561 | 752 ft | 16 kts | 259° |
| 2026-05-06 09:03 | 45.63376 | 8.72402 | 749 ft | 16 kts | 259° |
| 2026-05-06 09:03 | 45.63352 | 8.72236 | 747 ft | 19 kts | 261° |
| 2026-05-06 09:03 | 45.63329 | 8.72060 | 747 ft | 16 kts | 259° |
| 2026-05-06 09:03 | 45.63273 | 8.71972 | 752 ft | 12 kts | 185° |
| 2026-05-06 09:04 | 45.63181 | 8.71994 | 749 ft | 15 kts | 168° |
| 2026-05-06 09:04 | 45.63079 | 8.72022 | 750 ft | 15 kts | 169° |
| 2026-05-06 09:04 | 45.62996 | 8.71980 | 750 ft | 15 kts | 247° |
| 2026-05-06 09:04 | 45.62975 | 8.71825 | 751 ft | 16 kts | 259° |
| 2026-05-06 09:05 | 45.62954 | 8.71673 | 751 ft | 15 kts | 259° |
| 2026-05-06 09:05 | 45.62936 | 8.71538 | 753 ft | 11 kts | 259° |
| 2026-05-06 09:05 | 45.62898 | 8.71509 | 753 ft | 6 kts | 171° |
| 2026-05-06 09:05 | 45.62858 | 8.71520 | 751 ft | 5 kts | 169° |
| 2026-05-06 09:06 | 45.62851 | 8.71522 | 751 ft | 0 kts | 169° |